Time;durP1;ratioP1;P1;durP2;ratioP2;P2;SDS_P1;SDS_P2;PMS_P1;PMS_P2;Temp;Humidity;BMP_temperature;BMP_pressure;BME280_temperature;BME280_humidity;BME280_pressure;Samples;Min_cycle;Max_cycle;Signal;HPM_P1;HPM_P2
2022/12/27 00:01:22;;;;;;;13.80;3.37;;;7.70;99.90;;;;;;4992359;28;20650;-81
2022/12/27 00:03:49;;;;;;;11.53;3.17;;;7.70;99.90;;;;;;4992612;28;20747;-80
2022/12/27 00:06:18;;;;;;;17.93;3.67;;;7.70;99.90;;;;;;4992567;28;20238;-80
2022/12/27 00:08:46;;;;;;;15.27;3.87;;;7.80;99.90;;;;;;4992040;28;20667;-79
2022/12/27 00:11:15;;;;;;;20.17;3.27;;;7.80;99.90;;;;;;4992248;28;20588;-80
2022/12/27 00:13:44;;;;;;;12.13;3.17;;;7.80;99.90;;;;;;4992663;28;20672;-80
2022/12/27 00:16:12;;;;;;;13.63;2.57;;;7.80;99.90;;;;;;4992184;28;20280;-79
2022/12/27 00:18:41;;;;;;;14.10;3.37;;;7.80;99.90;;;;;;4992003;28;20213;-81
2022/12/27 00:21:10;;;;;;;9.03;2.67;;;7.70;99.90;;;;;;4992513;28;20193;-82
2022/12/27 00:23:41;;;;;;;19.47;2.83;;;7.70;99.90;;;;;;4991792;28;20532;-81
2022/12/27 00:26:15;;;;;;;14.43;3.17;;;7.70;99.90;;;;;;4992670;28;20757;-82
2022/12/27 00:28:43;;;;;;;17.30;3.70;;;7.70;99.90;;;;;;4992231;28;20568;-80
2022/12/27 00:31:12;;;;;;;15.13;2.80;;;7.70;99.90;;;;;;4991549;28;20817;-81
2022/12/27 00:33:40;;;;;;;8.57;2.93;;;7.70;99.90;;;;;;4999663;28;20213;-83
2022/12/27 00:36:11;;;;;;;11.23;2.27;;;7.80;99.90;;;;;;5014285;28;20734;-77
2022/12/27 00:38:38;;;;;;;7.63;2.47;;;7.80;99.90;;;;;;5015852;28;20278;-80
2022/12/27 00:41:05;;;;;;;13.83;3.63;;;7.90;99.90;;;;;;5015341;28;20237;-81
2022/12/27 00:43:32;;;;;;;19.27;3.47;;;7.90;99.90;;;;;;5004340;28;20232;-81
2022/12/27 00:46:01;;;;;;;9.47;2.73;;;7.90;99.90;;;;;;4996128;28;20252;-80
2022/12/27 00:48:28;;;;;;;9.03;2.50;;;7.90;99.90;;;;;;5013605;28;20330;-80
2022/12/27 00:50:59;;;;;;;14.23;3.40;;;8.00;99.90;;;;;;5014785;28;20746;-82
2022/12/27 00:53:26;;;;;;;9.93;2.73;;;7.90;99.90;;;;;;5015636;28;20206;-79
2022/12/27 00:55:53;;;;;;;11.97;2.30;;;7.90;99.90;;;;;;4997963;28;20212;-80
2022/12/27 00:58:21;;;;;;;12.37;3.07;;;7.90;99.90;;;;;;4995120;28;20782;-81
2022/12/27 01:00:48;;;;;;;11.10;2.80;;;7.90;99.90;;;;;;4995199;28;20232;-79
2022/12/27 01:03:17;;;;;;;11.23;2.97;;;7.90;99.90;;;;;;4995299;28;20208;-80
2022/12/27 01:05:44;;;;;;;10.27;2.60;;;7.90;99.90;;;;;;4994273;28;20295;-81
2022/12/27 01:08:11;;;;;;;12.87;3.43;;;7.80;99.90;;;;;;4995429;28;20250;-80
2022/12/27 01:10:39;;;;;;;17.17;3.73;;;7.80;99.90;;;;;;5008076;28;20817;-79
2022/12/27 01:13:06;;;;;;;8.17;3.23;;;7.80;99.90;;;;;;5004305;28;20247;-80
2022/12/27 01:15:33;;;;;;;12.67;3.07;;;7.80;99.90;;;;;;4995566;28;20250;-78
2022/12/27 01:18:00;;;;;;;7.97;2.50;;;7.80;99.90;;;;;;4995112;28;20283;-78
2022/12/27 01:20:29;;;;;;;15.17;3.20;;;7.80;99.90;;;;;;5004365;28;20221;-80
2022/12/27 01:22:56;;;;;;;12.60;3.97;;;7.80;99.90;;;;;;5011716;28;20538;-80
2022/12/27 01:25:23;;;;;;;14.93;2.30;;;7.80;99.90;;;;;;4994288;28;20962;-80
2022/12/27 01:27:50;;;;;;;8.93;2.60;;;7.90;99.90;;;;;;4994854;28;20275;-78
2022/12/27 01:30:16;;;;;;;17.17;2.50;;;7.90;99.90;;;;;;4995683;28;20294;-79
2022/12/27 01:32:43;;;;;;;12.87;2.93;;;7.90;99.90;;;;;;4994934;28;20227;-80
2022/12/27 01:35:10;;;;;;;11.17;2.17;;;7.80;99.90;;;;;;4994843;28;20283;-80
2022/12/27 01:37:39;;;;;;;9.83;2.80;;;7.80;99.90;;;;;;4994967;28;20287;-79
2022/12/27 01:40:07;;;;;;;9.93;4.20;;;7.80;99.90;;;;;;4994177;28;20256;-79
2022/12/27 01:42:51;;;;;;;12.33;2.40;;;7.80;99.90;;;;;;4994915;28;20210;-79
2022/12/27 01:45:20;;;;;;;12.27;2.60;;;7.90;99.90;;;;;;4995118;28;20198;-79
2022/12/27 01:47:54;;;;;;;10.80;3.73;;;7.80;99.90;;;;;;4994154;28;20315;-79
2022/12/27 01:50:29;;;;;;;12.17;2.87;;;7.80;99.90;;;;;;4994823;28;20206;-79
2022/12/27 01:53:03;;;;;;;12.73;2.50;;;7.80;99.90;;;;;;4994499;28;20600;-79
2022/12/27 01:55:35;;;;;;;12.03;3.20;;;7.80;99.90;;;;;;4994535;28;20651;-78
2022/12/27 01:58:06;;;;;;;11.53;3.37;;;7.80;99.90;;;;;;4994964;28;20284;-79
2022/12/27 02:00:33;;;;;;;13.83;3.90;;;7.80;99.90;;;;;;4994222;28;20635;-81
2022/12/27 02:03:03;;;;;;;15.97;3.23;;;7.80;99.90;;;;;;4994469;28;20222;-79
2022/12/27 02:05:31;;;;;;;12.93;2.47;;;7.80;99.90;;;;;;4994987;28;20204;-82
2022/12/27 02:08:07;;;;;;;12.37;2.30;;;7.70;99.90;;;;;;4993910;28;20621;-79
2022/12/27 02:10:35;;;;;;;9.27;2.50;;;7.80;99.90;;;;;;4994432;28;20215;-80
2022/12/27 02:13:04;;;;;;;10.70;2.50;;;7.80;99.90;;;;;;4994641;28;20307;-80
2022/12/27 02:15:31;;;;;;;12.40;2.30;;;7.70;99.90;;;;;;4993998;28;20652;-80
2022/12/27 02:17:58;;;;;;;11.80;2.67;;;7.70;99.90;;;;;;4993824;28;20208;-80
2022/12/27 02:20:31;;;;;;;11.93;2.70;;;7.80;99.90;;;;;;4994151;28;20279;-81
2022/12/27 02:26:51;;;;;;;11.53;2.53;;;7.80;99.90;;;;;;4994008;28;20207;-80
2022/12/27 02:29:58;;;;;;;7.53;2.43;;;7.80;99.90;;;;;;4993164;28;21034;-81
2022/12/27 02:32:30;;;;;;;10.83;2.13;;;7.70;99.90;;;;;;4993951;28;20307;-78
2022/12/27 02:35:08;;;;;;;10.80;2.07;;;7.70;99.90;;;;;;4993760;28;20630;-81
2022/12/27 02:37:39;;;;;;;11.30;2.00;;;7.70;99.90;;;;;;4992872;28;20206;-82
2022/12/27 02:54:34;;;;;;;14.90;2.00;;;7.60;99.90;;;;;;4993564;28;20199;-82
2022/12/27 02:57:09;;;;;;;12.87;2.57;;;7.60;99.90;;;;;;4992639;28;20279;-79
2022/12/27 03:06:38;;;;;;;13.40;2.87;;;7.50;99.90;;;;;;4993018;28;20196;-81
2022/12/27 03:08:43;;;;;;;9.33;2.63;;;7.50;99.90;;;;;;4993381;28;20228;-79
2022/12/27 03:17:00;;;;;;;13.17;2.47;;;7.50;99.90;;;;;;4993438;28;20472;-80
2022/12/27 03:33:22;;;;;;;7.33;2.73;;;7.40;99.90;;;;;;4992590;28;20255;-81
2022/12/27 03:38:46;;;;;;;11.50;2.73;;;7.40;99.90;;;;;;4992730;28;20207;-79
2022/12/27 03:44:03;;;;;;;13.33;2.10;;;7.30;99.90;;;;;;4992020;28;20200;-80
2022/12/27 03:46:33;;;;;;;12.00;3.40;;;7.20;99.90;;;;;;4991712;28;20495;-80
2022/12/27 03:49:11;;;;;;;11.37;3.23;;;7.20;99.90;;;;;;4992246;28;20200;-80
2022/12/27 03:51:42;;;;;;;14.67;2.93;;;7.20;99.90;;;;;;4992782;28;20219;-80
2022/12/27 03:54:16;;;;;;;9.33;2.57;;;7.20;99.90;;;;;;4992431;28;20569;-79
2022/12/27 03:56:43;;;;;;;10.70;2.30;;;7.20;99.90;;;;;;5012191;28;20295;-79
2022/12/27 03:59:12;;;;;;;6.83;2.70;;;7.20;99.90;;;;;;5008734;28;20200;-80
2022/12/27 04:01:40;;;;;;;11.17;2.27;;;7.20;99.90;;;;;;4992089;28;20228;-80
2022/12/27 04:04:07;;;;;;;7.80;2.00;;;7.20;99.90;;;;;;4992726;28;20214;-79
2022/12/27 04:06:34;;;;;;;9.97;3.07;;;7.20;99.90;;;;;;4992240;28;20274;-79
2022/12/27 04:36:26;;;;;;;16.33;2.93;;;7.30;99.90;;;;;;4996203;28;20199;-81
2022/12/27 04:38:53;;;;;;;9.17;2.70;;;7.30;99.90;;;;;;4996406;28;20210;-81
2022/12/27 04:55:16;;;;;;;9.07;2.00;;;7.30;99.90;;;;;;4990989;28;20207;-82
2022/12/27 04:57:44;;;;;;;12.47;3.23;;;7.30;99.90;;;;;;5015040;28;20199;-81
2022/12/27 05:02:59;;;;;;;12.07;2.73;;;7.40;99.90;;;;;;4998791;28;20206;-79
2022/12/27 05:05:26;;;;;;;11.80;2.20;;;7.30;99.90;;;;;;4994990;28;20224;-81
2022/12/27 05:16:09;;;;;;;9.50;2.30;;;7.40;99.90;;;;;;4995726;28;20289;-80
2022/12/27 05:18:36;;;;;;;8.97;3.13;;;7.30;99.90;;;;;;4995080;28;20290;-80
2022/12/27 05:21:04;;;;;;;6.70;2.33;;;7.30;99.90;;;;;;4994507;28;20310;-81
2022/12/27 05:26:19;;;;;;;11.33;2.17;;;7.40;99.90;;;;;;4995098;28;20303;-80
2022/12/27 05:28:48;;;;;;;9.87;2.33;;;7.30;99.90;;;;;;4996431;28;20228;-80
2022/12/27 05:31:14;;;;;;;13.97;3.00;;;7.30;99.90;;;;;;5014493;28;20291;-80
2022/12/27 05:33:41;;;;;;;14.20;2.80;;;7.30;99.90;;;;;;5014632;28;20680;-80
2022/12/27 05:36:09;;;;;;;11.63;3.73;;;7.30;99.90;;;;;;5013392;28;20200;-80
2022/12/27 05:38:36;;;;;;;11.57;2.50;;;7.30;99.90;;;;;;5014553;28;20234;-81
2022/12/27 05:41:04;;;;;;;11.73;2.93;;;7.20;99.90;;;;;;5007033;28;20577;-81
2022/12/27 05:43:32;;;;;;;9.20;2.43;;;7.20;99.90;;;;;;4995282;28;20210;-79
2022/12/27 05:46:05;;;;;;;12.43;2.90;;;7.20;99.90;;;;;;4994576;28;20283;-80
2022/12/27 05:48:32;;;;;;;9.43;2.87;;;7.20;99.90;;;;;;4995734;28;20303;-80
2022/12/27 05:51:03;;;;;;;11.83;2.50;;;7.20;99.90;;;;;;4994440;28;20234;-80
2022/12/27 05:53:30;;;;;;;12.37;2.97;;;7.20;99.90;;;;;;4994500;28;20279;-81
2022/12/27 05:55:58;;;;;;;6.80;2.20;;;7.20;99.90;;;;;;4994609;28;20224;-80
2022/12/27 05:58:25;;;;;;;8.97;1.93;;;7.20;99.90;;;;;;4994432;28;20612;-80
2022/12/27 06:00:52;;;;;;;9.83;2.40;;;7.20;99.90;;;;;;4993603;28;20658;-79
2022/12/27 06:03:20;;;;;;;10.67;2.43;;;7.20;99.90;;;;;;4994436;28;20766;-80
2022/12/27 06:05:47;;;;;;;14.03;2.33;;;7.20;99.90;;;;;;4994595;28;20188;-81
2022/12/27 06:08:14;;;;;;;15.20;2.70;;;7.10;99.90;;;;;;4994165;28;20267;-81
2022/12/27 06:10:41;;;;;;;11.00;2.50;;;7.00;99.90;;;;;;4994434;28;20236;-81
2022/12/27 06:13:08;;;;;;;11.63;2.90;;;7.10;99.90;;;;;;4994009;28;20283;-80
2022/12/27 06:15:36;;;;;;;11.67;2.20;;;7.10;99.90;;;;;;4994450;28;20779;-80
2022/12/27 06:18:05;;;;;;;10.87;2.80;;;7.00;99.90;;;;;;4994571;28;20196;-80
2022/12/27 06:20:33;;;;;;;16.03;3.20;;;7.10;99.90;;;;;;4994052;28;20200;-80
2022/12/27 06:23:00;;;;;;;11.23;3.20;;;7.10;99.90;;;;;;4994396;28;20258;-79
2022/12/27 06:25:27;;;;;;;7.77;1.90;;;7.10;99.90;;;;;;4994510;28;20207;-80
2022/12/27 06:27:54;;;;;;;12.63;2.17;;;7.10;99.90;;;;;;4993554;28;20310;-80
2022/12/27 06:30:21;;;;;;;8.10;2.30;;;7.20;99.90;;;;;;4994305;28;20292;-82
2022/12/27 06:32:48;;;;;;;10.47;2.60;;;7.30;99.90;;;;;;4993128;28;20767;-80
2022/12/27 06:35:15;;;;;;;9.83;3.77;;;7.30;99.90;;;;;;4993260;28;20199;-80
2022/12/27 06:37:44;;;;;;;14.43;3.40;;;7.30;99.90;;;;;;4994016;28;20204;-80
2022/12/27 06:40:12;;;;;;;11.93;2.50;;;7.30;99.90;;;;;;4993934;28;20258;-80
2022/12/27 06:42:39;;;;;;;11.90;2.20;;;7.30;99.90;;;;;;4993313;28;20731;-81
2022/12/27 06:45:08;;;;;;;14.13;2.70;;;7.30;99.90;;;;;;5005419;28;20215;-79
2022/12/27 06:47:35;;;;;;;12.13;2.87;;;7.20;99.90;;;;;;4997798;28;20327;-81
2022/12/27 06:50:02;;;;;;;10.00;2.20;;;7.20;99.90;;;;;;4993408;28;20258;-80
2022/12/27 06:52:29;;;;;;;8.93;2.63;;;7.20;99.90;;;;;;5012895;28;20218;-80
2022/12/27 06:54:57;;;;;;;9.83;2.17;;;7.20;99.90;;;;;;5008155;28;20204;-80
2022/12/27 06:57:24;;;;;;;8.57;2.27;;;7.20;99.90;;;;;;4993244;28;20200;-80
2022/12/27 06:59:51;;;;;;;6.47;2.10;;;7.20;99.90;;;;;;4994149;28;20505;-81
2022/12/27 07:02:18;;;;;;;9.27;2.40;;;7.20;99.90;;;;;;4993742;28;20219;-81
2022/12/27 07:04:45;;;;;;;14.43;4.07;;;7.20;99.90;;;;;;4992373;28;20261;-81
2022/12/27 07:07:12;;;;;;;10.27;3.57;;;7.10;99.90;;;;;;4992621;28;20600;-81
2022/12/27 07:09:39;;;;;;;5.70;2.20;;;7.00;99.90;;;;;;4992740;28;20287;-81
2022/12/27 07:12:07;;;;;;;13.00;2.80;;;7.10;99.90;;;;;;4992873;28;20519;-81
2022/12/27 07:14:34;;;;;;;11.47;2.63;;;7.10;99.90;;;;;;4993674;28;20512;-81
2022/12/27 07:17:01;;;;;;;9.67;2.47;;;7.20;99.90;;;;;;4993100;28;20199;-80
2022/12/27 07:19:28;;;;;;;10.17;2.87;;;7.20;99.90;;;;;;4993765;28;20203;-80
2022/12/27 07:21:55;;;;;;;11.43;3.20;;;7.10;99.90;;;;;;4993702;28;20560;-81
2022/12/27 07:24:22;;;;;;;9.83;3.00;;;7.20;99.90;;;;;;4992432;28;20203;-80
2022/12/27 07:26:49;;;;;;;10.07;2.37;;;7.20;99.90;;;;;;4992582;28;20211;-83
2022/12/27 07:29:17;;;;;;;10.27;2.30;;;7.20;99.90;;;;;;4992859;28;20326;-79
2022/12/27 07:31:44;;;;;;;4.33;1.60;;;7.10;99.90;;;;;;5004691;28;20666;-79
2022/12/27 07:34:11;;;;;;;13.73;2.30;;;7.10;99.90;;;;;;5010740;28;20289;-80
2022/12/27 07:36:40;;;;;;;12.30;3.53;;;7.10;99.90;;;;;;4992424;28;20203;-80
2022/12/27 07:39:07;;;;;;;7.97;1.97;;;7.00;99.90;;;;;;4992143;28;20291;-78
2022/12/27 07:41:35;;;;;;;8.77;2.53;;;6.90;99.90;;;;;;4993679;28;20196;-80
2022/12/27 07:44:02;;;;;;;11.90;2.37;;;6.90;99.90;;;;;;5011800;28;20286;-79
2022/12/27 07:46:31;;;;;;;17.43;2.63;;;6.90;99.90;;;;;;5011736;28;20227;-79
2022/12/27 07:48:59;;;;;;;10.27;2.23;;;6.90;99.90;;;;;;5000126;28;20239;-81
2022/12/27 07:51:27;;;;;;;9.47;2.57;;;6.90;99.90;;;;;;4992768;28;20222;-82
2022/12/27 07:53:55;;;;;;;9.00;2.90;;;6.90;99.90;;;;;;4991730;28;20574;-79
2022/12/27 07:56:23;;;;;;;10.37;2.40;;;6.90;99.90;;;;;;4992857;28;20214;-79
2022/12/27 07:58:51;;;;;;;10.10;2.80;;;6.90;99.90;;;;;;4992612;28;20207;-80
2022/12/27 08:01:20;;;;;;;8.47;3.10;;;7.00;99.90;;;;;;4991568;28;20577;-81
2022/12/27 08:03:48;;;;;;;7.07;1.80;;;6.90;99.90;;;;;;4991992;28;20200;-79
2022/12/27 08:06:23;;;;;;;8.53;2.10;;;6.80;99.90;;;;;;4991688;28;20219;-80
2022/12/27 08:08:52;;;;;;;9.17;2.00;;;6.90;99.90;;;;;;4991935;28;20249;-78
2022/12/27 08:11:20;;;;;;;15.10;2.60;;;6.90;99.90;;;;;;4993554;28;20655;-79
2022/12/27 08:13:47;;;;;;;13.77;2.37;;;6.90;99.90;;;;;;4991823;28;20487;-79
2022/12/27 08:16:17;;;;;;;10.77;2.50;;;7.00;99.90;;;;;;4996539;28;20220;-80
2022/12/27 08:18:44;;;;;;;9.10;3.10;;;6.90;99.90;;;;;;5009800;28;20191;-80
2022/12/27 08:21:13;;;;;;;11.60;2.37;;;6.90;99.90;;;;;;4991208;28;20258;-80
2022/12/27 08:23:40;;;;;;;8.77;2.60;;;6.90;99.90;;;;;;5001091;28;20207;-79
2022/12/27 08:26:07;;;;;;;15.00;2.60;;;6.80;99.90;;;;;;5009133;28;20210;-80
2022/12/27 08:28:34;;;;;;;9.10;2.43;;;6.80;99.90;;;;;;5000696;28;20243;-79
2022/12/27 08:31:01;;;;;;;13.40;3.07;;;6.70;99.90;;;;;;5009179;28;20206;-80
2022/12/27 08:33:29;;;;;;;11.73;3.53;;;6.80;99.90;;;;;;5011267;28;20286;-80
2022/12/27 08:35:57;;;;;;;7.43;2.63;;;6.80;99.90;;;;;;5010883;28;20682;-80
2022/12/27 08:38:25;;;;;;;9.47;3.00;;;6.90;99.90;;;;;;5006710;28;20230;-78
2022/12/27 08:40:52;;;;;;;8.90;3.20;;;6.90;99.90;;;;;;5010616;28;20679;-84
2022/12/27 08:43:20;;;;;;;11.67;3.00;;;6.90;99.90;;;;;;5006452;28;20652;-79
2022/12/27 08:45:47;;;;;;;10.20;3.63;;;6.90;99.90;;;;;;4992003;28;20466;-79
2022/12/27 08:48:14;;;;;;;11.90;3.37;;;6.90;99.90;;;;;;4990914;28;20303;-78
2022/12/27 08:50:41;;;;;;;10.40;3.30;;;6.90;99.90;;;;;;4991723;28;20196;-79
2022/12/27 08:53:08;;;;;;;7.47;2.77;;;6.90;99.90;;;;;;4995680;28;20230;-80
2022/12/27 08:55:36;;;;;;;9.37;3.37;;;7.00;99.90;;;;;;5010042;28;20226;-80
2022/12/27 08:58:04;;;;;;;8.90;2.93;;;7.00;99.90;;;;;;5003734;28;20254;-81
2022/12/27 09:00:35;;;;;;;8.73;3.10;;;7.00;99.90;;;;;;5009469;28;20255;-81
2022/12/27 09:03:02;;;;;;;11.13;3.07;;;7.00;99.90;;;;;;5010944;28;20207;-80
2022/12/27 09:05:36;;;;;;;7.20;2.73;;;7.00;99.90;;;;;;5014805;28;20249;-79
2022/12/27 09:08:03;;;;;;;11.83;3.63;;;7.00;99.90;;;;;;5013239;28;20302;-80
2022/12/27 09:10:30;;;;;;;9.57;3.53;;;7.10;99.90;;;;;;5011401;28;20281;-81
2022/12/27 09:12:59;;;;;;;16.23;3.57;;;7.10;99.90;;;;;;5014407;28;20298;-79
2022/12/27 09:15:26;;;;;;;14.17;2.93;;;7.10;99.90;;;;;;5013017;28;20203;-78
2022/12/27 09:17:53;;;;;;;10.43;3.10;;;7.10;99.90;;;;;;4994846;28;20196;-79
2022/12/27 09:20:20;;;;;;;13.50;3.20;;;7.10;99.90;;;;;;4998430;28;20298;-79
2022/12/27 09:22:47;;;;;;;8.83;2.67;;;7.20;99.90;;;;;;5014170;28;20198;-79
2022/12/27 09:25:14;;;;;;;9.97;2.97;;;7.10;99.90;;;;;;5010265;28;20207;-80
2022/12/27 09:27:40;;;;;;;12.67;3.40;;;7.10;99.90;;;;;;4994748;28;20259;-81
2022/12/27 09:30:10;;;;;;;11.40;1.87;;;7.10;99.90;;;;;;4994420;28;20228;-81
2022/12/27 09:32:37;;;;;;;6.37;1.73;;;7.20;99.90;;;;;;4994519;28;20200;-78
2022/12/27 09:35:05;;;;;;;10.63;2.17;;;7.30;99.90;;;;;;4995414;28;20199;-79
2022/12/27 09:37:32;;;;;;;9.10;2.10;;;7.30;99.90;;;;;;4994350;28;20193;-81
2022/12/27 09:39:59;;;;;;;10.87;2.50;;;7.40;99.90;;;;;;4994481;28;20239;-81
2022/12/27 09:42:36;;;;;;;5.20;1.70;;;7.40;99.90;;;;;;4995093;28;20204;-79
2022/12/27 09:45:08;;;;;;;6.60;1.70;;;7.50;99.90;;;;;;5003141;28;20294;-80
2022/12/27 09:47:47;;;;;;;7.53;2.00;;;7.60;99.90;;;;;;5014558;28;20199;-80
2022/12/27 09:50:19;;;;;;;11.40;1.83;;;7.60;99.90;;;;;;4997600;28;20286;-80
2022/12/27 09:52:53;;;;;;;7.27;2.03;;;7.70;99.90;;;;;;4994629;28;20497;-80
2022/12/27 09:55:29;;;;;;;8.10;1.63;;;7.70;99.90;;;;;;4994648;28;20672;-82
2022/12/27 09:58:05;;;;;;;7.33;1.70;;;7.70;99.90;;;;;;4995070;28;20478;-80
2022/12/27 10:00:32;;;;;;;10.23;2.30;;;7.70;99.90;;;;;;4994307;28;20671;-79
2022/12/27 10:03:04;;;;;;;8.80;2.63;;;7.80;99.90;;;;;;4994254;28;20667;-79
2022/12/27 10:05:36;;;;;;;5.90;1.93;;;7.80;99.90;;;;;;4994571;28;20192;-79
2022/12/27 10:08:21;;;;;;;10.03;2.00;;;7.90;99.90;;;;;;4994258;28;20650;-79
2022/12/27 10:10:55;;;;;;;13.87;2.33;;;8.00;99.90;;;;;;4993865;28;20295;-80
2022/12/27 10:13:36;;;;;;;5.53;1.70;;;8.00;99.90;;;;;;4993631;28;20204;-79
2022/12/27 10:16:12;;;;;;;5.27;1.57;;;8.00;99.90;;;;;;4994305;28;20196;-80
2022/12/27 10:18:54;;;;;;;8.03;2.07;;;8.00;99.90;;;;;;4994365;28;20187;-79
2022/12/27 10:21:23;;;;;;;12.50;2.17;;;8.10;99.90;;;;;;4993619;28;20291;-79
2022/12/27 10:23:55;;;;;;;7.77;2.40;;;8.10;99.90;;;;;;4994163;28;20228;-79
2022/12/27 10:26:22;;;;;;;7.27;2.67;;;8.10;99.90;;;;;;4994392;28;20200;-80
2022/12/27 10:28:57;;;;;;;9.07;2.53;;;8.10;99.90;;;;;;4993068;28;20240;-81
2022/12/27 10:31:25;;;;;;;6.77;2.13;;;8.10;99.90;;;;;;4993370;28;20196;-81
2022/12/27 10:33:54;;;;;;;9.10;1.90;;;8.20;99.90;;;;;;5004000;28;20294;-79
2022/12/27 10:36:23;;;;;;;6.60;2.13;;;8.20;99.90;;;;;;5013607;28;20560;-82
2022/12/27 10:38:50;;;;;;;7.37;1.90;;;8.30;99.90;;;;;;5008593;28;20607;-83
2022/12/27 10:41:30;;;;;;;6.77;1.80;;;8.30;99.90;;;;;;4992791;28;20244;-80
2022/12/27 10:43:56;;;;;;;7.00;1.90;;;8.30;99.90;;;;;;4993545;28;20206;-81
2022/12/27 10:46:26;;;;;;;6.50;1.77;;;8.30;99.90;;;;;;5006785;28;20250;-81
2022/12/27 10:48:57;;;;;;;7.40;2.40;;;8.40;99.90;;;;;;4994746;28;20551;-80
2022/12/27 10:51:25;;;;;;;6.40;1.90;;;8.40;99.90;;;;;;5010014;28;20661;-81
2022/12/27 10:54:00;;;;;;;8.00;2.93;;;8.40;99.90;;;;;;5013525;28;20203;-81
2022/12/27 10:56:29;;;;;;;9.30;1.63;;;8.50;99.90;;;;;;5012274;28;20265;-80
2022/12/27 10:59:10;;;;;;;6.97;1.83;;;8.50;99.90;;;;;;4993438;28;20287;-83
2022/12/27 11:01:37;;;;;;;8.23;2.33;;;8.60;99.90;;;;;;4993539;28;20706;-80
2022/12/27 11:04:15;;;;;;;10.53;1.77;;;8.60;99.90;;;;;;4992325;28;20208;-81
2022/12/27 11:06:43;;;;;;;11.50;2.67;;;8.70;99.90;;;;;;4993715;28;20223;-81
2022/12/27 11:09:29;;;;;;;15.00;2.97;;;8.80;99.90;;;;;;4992164;28;20290;-80
2022/12/27 11:12:16;;;;;;;12.33;3.97;;;8.80;99.90;;;;;;4993092;28;20231;-80
2022/12/27 11:14:55;;;;;;;16.40;3.47;;;8.80;99.90;;;;;;4992554;28;20235;-81
2022/12/27 11:17:26;;;;;;;16.23;3.40;;;8.80;99.90;;;;;;4992520;28;20283;-80
2022/12/27 11:19:57;;;;;;;11.37;3.67;;;8.80;99.90;;;;;;4992101;28;20197;-79
2022/12/27 11:22:24;;;;;;;14.47;4.03;;;8.70;99.90;;;;;;4999808;28;20473;-80
2022/12/27 11:24:53;;;;;;;17.73;3.43;;;8.70;99.90;;;;;;5000892;28;20369;-80
2022/12/27 11:27:24;;;;;;;10.47;3.77;;;8.60;99.90;;;;;;5011876;28;20318;-83
2022/12/27 11:29:52;;;;;;;16.10;3.43;;;8.60;99.90;;;;;;5012097;28;20239;-81
2022/12/27 11:32:22;;;;;;;11.37;2.77;;;8.60;99.90;;;;;;5008903;28;20212;-81
2022/12/27 11:34:51;;;;;;;14.67;2.93;;;8.60;99.90;;;;;;5003160;28;20729;-80
2022/12/27 11:37:22;;;;;;;10.63;2.83;;;8.60;99.90;;;;;;4991469;28;20200;-81
2022/12/27 11:39:51;;;;;;;14.73;2.93;;;8.60;99.90;;;;;;4992142;28;20322;-80
2022/12/27 11:42:31;;;;;;;13.17;4.30;;;8.60;99.90;;;;;;4992749;28;20227;-80
2022/12/27 11:45:05;;;;;;;19.40;4.93;;;8.60;99.90;;;;;;4992284;28;20192;-81
2022/12/27 11:47:41;;;;;;;15.03;2.87;;;8.60;99.90;;;;;;4993320;28;20202;-81
2022/12/27 11:50:27;;;;;;;11.70;3.13;;;8.60;99.90;;;;;;4992821;28;20516;-84
2022/12/27 11:53:19;;;;;;;13.17;3.63;;;8.60;99.90;;;;;;4992921;28;20342;-79
2022/12/27 11:56:03;;;;;;;15.33;3.60;;;8.70;99.90;;;;;;4992886;28;20200;-80
2022/12/27 11:58:59;;;;;;;10.47;3.17;;;8.70;99.90;;;;;;4992862;28;20792;-83
2022/12/27 12:02:02;;;;;;;14.10;3.40;;;8.60;99.90;;;;;;4991511;28;20243;-82
2022/12/27 12:05:12;;;;;;;15.20;3.17;;;8.60;99.90;;;;;;4992569;28;20290;-80
2022/12/27 12:07:53;;;;;;;15.60;3.73;;;8.60;99.90;;;;;;5012086;28;20282;-81
2022/12/27 12:10:40;;;;;;;14.03;3.33;;;8.50;99.90;;;;;;4993771;28;20230;-80
2022/12/27 12:13:37;;;;;;;12.23;3.40;;;8.50;99.90;;;;;;4992036;28;20597;-80
2022/12/27 12:16:39;;;;;;;15.50;3.73;;;8.40;99.90;;;;;;4991104;28;20295;-80
2022/12/27 12:19:19;;;;;;;16.57;3.97;;;8.30;99.90;;;;;;4997971;28;20195;-81
2022/12/27 12:21:57;;;;;;;13.90;3.30;;;8.40;99.90;;;;;;5012426;28;20274;-82
2022/12/27 12:24:40;;;;;;;12.67;3.60;;;8.40;99.90;;;;;;5011181;28;20231;-80
2022/12/27 12:27:27;;;;;;;11.73;4.17;;;8.30;99.90;;;;;;5002307;28;20191;-81
2022/12/27 12:30:12;;;;;;;14.57;3.97;;;8.30;99.90;;;;;;5009320;28;20249;-81
2022/12/27 12:32:56;;;;;;;13.27;4.07;;;8.30;99.90;;;;;;5013537;28;20496;-81
2022/12/27 12:35:31;;;;;;;21.80;4.07;;;8.30;99.90;;;;;;5011159;28;20195;-82
2022/12/27 12:38:23;;;;;;;19.53;5.03;;;8.30;99.90;;;;;;5014732;28;20712;-81
2022/12/27 12:41:21;;;;;;;11.07;4.00;;;8.30;99.90;;;;;;5014347;28;20541;-81
2022/12/27 12:44:33;;;;;;;19.87;5.20;;;8.30;99.90;;;;;;5014983;28;20199;-80
2022/12/27 12:47:08;;;;;;;16.90;5.63;;;8.30;99.90;;;;;;5015519;28;20282;-79
2022/12/27 12:49:49;;;;;;;15.03;5.57;;;8.30;99.90;;;;;;4996833;28;20561;-80
2022/12/27 12:52:39;;;;;;;17.63;5.23;;;8.30;99.90;;;;;;4995379;28;20195;-81
2022/12/27 12:55:36;;;;;;;17.03;5.93;;;8.30;99.90;;;;;;4995301;28;20254;-80
2022/12/27 12:58:19;;;;;;;22.47;6.03;;;8.40;99.90;;;;;;4995533;28;20204;-80
2022/12/27 13:01:15;;;;;;;18.80;6.33;;;8.30;99.90;;;;;;4995857;28;20295;-81
2022/12/27 13:03:53;;;;;;;18.97;5.40;;;8.30;99.90;;;;;;4995124;28;20231;-81
2022/12/27 13:06:47;;;;;;;13.10;6.03;;;8.30;99.90;;;;;;4995893;28;20200;-80
2022/12/27 13:09:29;;;;;;;13.70;4.90;;;8.30;99.90;;;;;;4994825;28;20216;-81
2022/12/27 13:12:04;;;;;;;11.87;4.23;;;8.30;99.90;;;;;;4994759;28;20208;-80
2022/12/27 13:14:47;;;;;;;14.97;4.93;;;8.30;99.90;;;;;;4995741;28;20722;-81
2022/12/27 13:17:22;;;;;;;14.63;4.57;;;8.40;99.90;;;;;;4994818;28;20247;-80
2022/12/27 13:20:05;;;;;;;14.93;4.23;;;8.40;99.90;;;;;;4995543;28;20206;-81
2022/12/27 13:22:45;;;;;;;14.33;4.17;;;8.40;99.90;;;;;;4994588;28;20214;-80
2022/12/27 13:25:25;;;;;;;16.17;4.23;;;8.50;99.90;;;;;;4995466;28;20663;-80
2022/12/27 13:28:04;;;;;;;17.73;4.07;;;8.50;99.90;;;;;;4995673;28;20230;-80
2022/12/27 13:30:38;;;;;;;18.03;4.33;;;8.50;99.90;;;;;;4994928;28;20247;-80
2022/12/27 13:33:23;;;;;;;16.77;4.20;;;8.50;99.90;;;;;;4995116;28;20668;-81
2022/12/27 13:36:04;;;;;;;17.37;4.07;;;8.50;99.90;;;;;;4995513;28;20279;-80
2022/12/27 13:38:40;;;;;;;10.47;4.00;;;8.50;99.90;;;;;;4995065;28;20199;-82
2022/12/27 13:41:52;;;;;;;17.23;4.73;;;8.50;99.90;;;;;;4994904;28;20239;-81
2022/12/27 13:44:45;;;;;;;14.07;5.07;;;8.50;99.90;;;;;;4987745;28;20284;-81
2022/12/27 13:47:41;;;;;;;13.70;3.53;;;8.50;99.90;;;;;;4995346;28;20275;-81
2022/12/27 13:50:48;;;;;;;11.63;3.60;;;8.50;99.90;;;;;;5012225;28;20231;-81
2022/12/27 13:53:44;;;;;;;10.73;3.70;;;8.50;99.90;;;;;;5014957;28;20261;-82
2022/12/27 13:56:22;;;;;;;14.90;4.23;;;8.50;99.90;;;;;;5005250;28;20211;-81
2022/12/27 13:59:06;;;;;;;15.70;4.10;;;8.50;99.90;;;;;;4994028;28;20667;-81
2022/12/27 14:01:48;;;;;;;10.73;3.57;;;8.50;99.90;;;;;;4994201;28;20760;-82
2022/12/27 14:04:52;;;;;;;12.23;3.70;;;8.50;99.90;;;;;;5007960;28;20282;-80
2022/12/27 14:07:42;;;;;;;14.50;3.23;;;8.40;99.90;;;;;;5012354;28;20180;-79
2022/12/27 14:10:19;;;;;;;12.13;3.10;;;8.40;99.90;;;;;;5012137;28;20537;-80
2022/12/27 14:13:00;;;;;;;13.40;4.00;;;8.40;99.90;;;;;;5010107;28;20207;-81
2022/12/27 14:15:59;;;;;;;14.43;3.20;;;8.40;99.90;;;;;;5010170;28;20286;-80
2022/12/27 14:18:41;;;;;;;12.00;3.57;;;8.40;99.90;;;;;;5013023;28;20211;-81
2022/12/27 14:21:20;;;;;;;10.13;3.03;;;8.40;99.90;;;;;;5012373;28;20274;-81
2022/12/27 14:24:11;;;;;;;9.00;3.70;;;8.40;99.90;;;;;;5012705;28;20199;-79
2022/12/27 14:27:11;;;;;;;12.50;3.97;;;8.40;99.90;;;;;;5013204;28;20576;-80
2022/12/27 14:30:10;;;;;;;14.80;3.77;;;8.40;99.90;;;;;;5016535;28;20207;-80
2022/12/27 14:33:12;;;;;;;10.27;3.50;;;8.40;99.90;;;;;;4995975;28;20210;-80
2022/12/27 14:36:22;;;;;;;7.33;2.60;;;8.30;99.90;;;;;;5019634;28;20291;-79
2022/12/27 14:39:39;;;;;;;8.23;3.40;;;8.30;99.90;;;;;;5004357;28;20237;-81
2022/12/27 14:42:58;;;;;;;13.03;3.63;;;8.20;99.90;;;;;;4996863;28;20690;-82
2022/12/27 14:45:57;;;;;;;10.20;4.03;;;8.20;99.90;;;;;;5004347;28;20294;-80
2022/12/27 14:49:05;;;;;;;9.90;3.30;;;8.20;99.90;;;;;;5001521;28;20219;-80
2022/12/27 14:51:59;;;;;;;12.07;3.87;;;8.20;99.90;;;;;;5011413;28;20265;-81
2022/12/27 14:54:59;;;;;;;9.17;3.87;;;8.10;99.90;;;;;;5008748;28;20199;-82
2022/12/27 14:57:39;;;;;;;10.00;3.77;;;8.10;99.90;;;;;;5011402;28;20219;-81
2022/12/27 15:03:14;;;;;;;6.20;3.77;;;8.00;99.90;;;;;;5007072;28;20681;-82
2022/12/27 15:05:56;;;;;;;6.43;2.90;;;8.00;99.90;;;;;;5011893;28;20274;-83
2022/12/27 15:08:42;;;;;;;8.50;3.43;;;8.00;99.90;;;;;;5010492;28;20512;-88
2022/12/27 15:11:33;;;;;;;5.63;2.77;;;8.00;99.90;;;;;;5014357;28;20593;-84
2022/12/27 15:14:28;;;;;;;7.90;3.33;;;8.00;99.90;;;;;;5030335;28;20210;-84